首页
METAR-TAF:

METAR-TAF

机场 :

Wiarton, 安大略省, 加拿大

纬度: 44-45N, 经度: 081-06W, 海拔: 222米

当前天气观测

该预报发布于19分钟前的12:00 UTC
风速12节,风向西,有时为25节阵风
温度 2°C
湿度 80%
气压 1018 hPa
能見度: 19.3公里
阴天层高于2000英尺

METAR: CYVV 151200Z 27012G25KT 12SM OVC020 02/M01 A3005 RMK SC8 SLP186

时间: 07:19 (12:19 UTC)

预报

该预报发布于41分钟前的11:38 UTC
预报有效从15日的 12点(UTC)到 15日的 24点(UTC)
风速15节,风向西,有时为25节阵风
能見度: 10公里
阴天层高于3000英尺
短暂存在
从 15日的 12点(UTC)到 15日的 22点(UTC)
能見度: 4.8公里
阴天层高于2000英尺
小阵雪
成为
从 15日的 16点(UTC)到 15日的 18点(UTC)
风速12节,风向西转西北,有时为22节阵风
从 15日的 2300点(UTC)
风速10节,风向,有时为20节阵风
能見度: 10公里
散云层高于4000英尺

TAF: CYVV 151138Z 1512/1524 27015G25KT P6SM OVC030 TEMPO 1512/1522 3SM -SHSN OVC020 BECMG 1516/1518 30012G22KT FM152300 36010G20KT P6SM SCT040 RMK NXT FCST BY 151400Z

超过4000个机场的气象观测和天气预报(METAR&TAF报告)。

可查询的气象台以黄色和红色小点在地图上表示。

将鼠标移到小点上方,可查看气象台名称。

然后点击查看天气观测和预报。

如需切换地图:点击带黑十字的绿色按钮放大地图;点击带横线的绿色按钮缩小地图;或者点击绿色箭头查看邻近地区的地图。


METAR-TAF: